Reynoldsville, PA

2:57 PM EDT on August 28, 2016 (GMT -0400)
Du Bois-Jefferson County | | Change Station

Elev 1818 ft 41.18 °N, 78.90 °W | Updated 4 minutes ago

Light Thunderstorms and Rain
Light Thunderstorm Rain
78 °F
Feels Like 78 °F
N
4
Wind Variable Wind from West

Today
High -- | Low -- °F
--% Chance of Precip.
Yesterday
High -- | Low -- °F
Precip. -- in
Pressure 30.19 in
Visibility 6.0 miles
Clouds Scattered Clouds 3300 ft
Mostly Cloudy 4600 ft
Mostly Cloudy 6000 ft
Dew Point 71 °F
Humidity 79%
Rainfall 0.08 in
Snow Depth Not available.
6:38 AM 7:53 PM
Waning Crescent, 14% visible
METAR KDUJ 281853Z AUTO 27003KT 6SM -TSRA SCT033 BKN046 BKN060 26/22 A3023 RMK AO2 LTG DSNT NE AND E AND SW RAB38 TSB10 SLP221 P0008 T02560217
Pressure 30.19 in
Visibility 6.0 miles
Clouds Scattered Clouds 3300 ft
Mostly Cloudy 4600 ft
Mostly Cloudy 6000 ft
Dew Point 71 °F
Humidity 79%
Rainfall 0.08 in
Snow Depth Not available.
6:38 AM 7:53 PM
Waning Crescent, 14% visible
METAR KDUJ 281853Z AUTO 27003KT 6SM -TSRA SCT033 BKN046 BKN060 26/22 A3023 RMK AO2 LTG DSNT NE AND E AND SW RAB38 TSB10 SLP221 P0008 T02560217

10-Day Weather Forecast

Almanac

Astronomy

Aug. 28, 2016 Rise Set
Actual Time
Civil Twilight
Nautical Twilight
Astronomical Twilight
Moon
Length of Visible Light
Length of Day
Tomorrow will be .
, % of the Moon is Illuminated

Today's Extremes

State Highs State Lows

Community

WunderPhotos

Upload Photos

1,935,647 photos uploaded!

WunderBlog® & News

Nearby

Air Quality

  Air Quality AQ Index Pollutant
Not available.

Snow Depth

Station Depth Elevation

Earthquake Activity

City Distance Mag. Time & Date
Minimum magnitude displayed is 2.5.

Coastal Water Temperatures

Place Temperature

Stations

Nearby Weather Stations

Station Location Temp. Windchill Dew Point Humidity Wind Precip. Elev Updated Type
                   

Watches & Warnings

There are currently no watches in effect.